M V Monarch — ZGBV3 — position and weather

sailwx.info

Track history (hours):
 
Tides and Currents Weather Stations Pressure Air Temp Water Temp Dewpoint Dewpoint Depression Visibility Wind Speed Wind Dir Waves Ship Positions

M V Monarch

Last reported at 2015-Sep-03 01:22 UTC. Time now 2015-Sep-03 15:09 UTC.
Position N 26°07' W 080°07'.

Length 46 m; draft 2.6 m.

Type: Pleasure craft. MMSI: 319927000.

Date/timePositionNaut miles runAvg speedWind from/ knotsBaromVisibWave heightAir tempDewpointWater temp
2015-Sep-03 01:22N 26°07' W 080°07'0 0.0
2015-Sep-03 00:22N 26°07' W 080°07'0 0.0
2015-Sep-02 23:31N 26°07' W 080°07'2 1.7
2015-Sep-02 22:33N 26°06' W 080°07'1111.0
2015-Sep-02 21:33N 25°55' W 080°04'9 8.9
2015-Sep-02 20:33N 25°46' W 080°06'0 0.0
2015-Sep-02 19:33N 25°46' W 080°06'0 0.0
2015-Sep-02 18:33N 25°46' W 080°06'3 2.8
2015-Sep-02 17:33N 25°46' W 080°09'2 2.0
2015-Sep-02 16:31N 25°46' W 080°11'0 0.0
2015-Sep-02 15:31N 25°46' W 080°11'0 0.0
2015-Sep-02 14:31N 25°46' W 080°11'0 0.0
2015-Sep-02 13:31N 25°46' W 080°11'  
2015-Aug-29 04:12N 25°46' W 080°11'0 0.2
2015-Aug-29 03:33N 25°46' W 080°11'0 0.0
2015-Aug-29 02:33N 25°46' W 080°11'0 0.0
2015-Aug-29 01:33N 25°46' W 080°11'0 0.0
2015-Aug-29 00:33N 25°46' W 080°11'0 0.0
2015-Aug-28 23:33N 25°46' W 080°11'0 0.0
2015-Aug-28 22:33N 25°46' W 080°11'0 0.0
2015-Aug-28 21:33N 25°46' W 080°11'0 0.0
2015-Aug-28 20:33N 25°46' W 080°11'0 0.1
2015-Aug-28 19:33N 25°46' W 080°11'  
Track history (hours):
 
Tides and Currents Weather Stations Pressure Air Temp Water Temp Dewpoint Dewpoint Depression Visibility Wind Speed Wind Dir Waves Ship Positions

M V Monarch

Last reported at 2015-Sep-03 01:22 UTC. Time now 2015-Sep-03 15:09 UTC.
Position N 26°07' W 080°07'.

Length 46 m; draft 2.6 m.

Type: Pleasure craft. MMSI: 319927000.

Date/timePositionNaut miles runAvg speedWind from/ knotsBaromVisibWave heightAir tempDewpointWater temp
2015-Sep-03 01:22N 26°07' W 080°07'0 0.0
2015-Sep-03 00:22N 26°07' W 080°07'0 0.0
2015-Sep-02 23:31N 26°07' W 080°07'2 1.7
2015-Sep-02 22:33N 26°06' W 080°07'1111.0
2015-Sep-02 21:33N 25°55' W 080°04'9 8.9
2015-Sep-02 20:33N 25°46' W 080°06'0 0.0
2015-Sep-02 19:33N 25°46' W 080°06'0 0.0
2015-Sep-02 18:33N 25°46' W 080°06'3 2.8
2015-Sep-02 17:33N 25°46' W 080°09'2 2.0
2015-Sep-02 16:31N 25°46' W 080°11'0 0.0
2015-Sep-02 15:31N 25°46' W 080°11'0 0.0
2015-Sep-02 14:31N 25°46' W 080°11'0 0.0
2015-Sep-02 13:31N 25°46' W 080°11'  
2015-Aug-29 04:12N 25°46' W 080°11'0 0.2
2015-Aug-29 03:33N 25°46' W 080°11'0 0.0
2015-Aug-29 02:33N 25°46' W 080°11'0 0.0
2015-Aug-29 01:33N 25°46' W 080°11'0 0.0
2015-Aug-29 00:33N 25°46' W 080°11'0 0.0
2015-Aug-28 23:33N 25°46' W 080°11'0 0.0
2015-Aug-28 22:33N 25°46' W 080°11'0 0.0
2015-Aug-28 21:33N 25°46' W 080°11'0 0.0
2015-Aug-28 20:33N 25°46' W 080°11'0 0.1
2015-Aug-28 19:33N 25°46' W 080°11'  

Dump ship's entire track history